Terminal Aerodrome Forecast
Issued by NWS Greer, SC

Home | Current Version | Previous Version | Text Only | Print | Product List | Glossary On
Versions: 1 2 3 4 5 6 7 8 9 10 11 12 13 14 15 16 17 18 19 20 21 22 23 24
641
FTUS42 KGSP 171122
TAFGSP
TAF
KGSP 171122Z 1712/1812 35003KT P6SM FEW120
     FM171500 22005KT P6SM SCT060
     FM171800 22007KT P6SM VCTS BKN050CB PROB30 1721/1801 4SM -TSRA
      OVC035CB
     FM180200 23004KT P6SM SCT050 BKN150
     FM180800 23003KT P6SM FEW150=

USA.gov is the U.S. government's official web portal to all federal, state and local government web resources and services.